MMMA/MAM METAR and TAF weather

Enter ICAO airport designator
Station Type Date Time Source
MMMA METAR 2022/06/27 16:40 UTC NOAA

MMMA 271640Z 21002KT 10SM BKN020TCU 33/22 A3007 RMK 8/200


Station Type Date Time Source
MMMA Decoded METAR 2022/06/27 16:40 UTC NOAA

Matamoros International , Mexico (MMMA) 25-46N 097-32W
Jun 27, 2022 - 12:40 PM EDT / 2022.06.27 1640 UTC
Wind: from the SSW (210 degrees) at 2 MPH (2 KT):0
Visibility: 10 mile(s):0
Sky conditions: mostly cloudy
Weather: Towering cumulus clouds observed
Temperature: 91 F (33 C)
Heat index: 97.5 F (36.4 C):1
Dew Point: 71 F (22 C)
Relative Humidity: 52%
Pressure (altimeter): 30.07 in. Hg (1018 hPa)
ob: MMMA 271640Z 21002KT 10SM BKN020TCU 33/22 A3007 RMK 8/200
cycle: 16

Station Type Date Time Source
MMMA TAF 2022/06/27 18:13 UTC NOAA

TAF MMMA 271705Z 2718/2818 11015KT P6SM BKN020
BECMG 2720/2721 SCT025
FM280300 14008KT P6SM SCT015
BECMG 2808/2809 6SM HZ SCT010
TEMPO 2810/2814 3SM BR BKN010
FM281500 35010KT 6SM HZ BKN015 PROB40 2815/2818 5SM RA BKN015 OVC030

Example: see airport list